Time;durP1;ratioP1;P1;durP2;ratioP2;P2;SDS_P1;SDS_P2;PMS_P1;PMS_P2;Temp;Humidity;BMP_temperature;BMP_pressure;BME280_temperature;BME280_humidity;BME280_pressure;Samples;Min_cycle;Max_cycle;Signal;HPM_P1;HPM_P2
2022/09/11 00:01:53;;;;;;;2.72;1.25;;;26.40;99.90;;;;;;4971456;28;20009;-54
2022/09/11 00:04:19;;;;;;;2.80;1.13;;;26.40;99.90;;;;;;4972543;28;20031;-55
2022/09/11 00:06:45;;;;;;;7.20;1.13;;;26.30;99.90;;;;;;4972629;28;20022;-53
2022/09/11 00:09:10;;;;;;;4.78;1.45;;;26.40;99.90;;;;;;4972618;28;20041;-54
2022/09/11 00:11:41;;;;;;;3.00;1.20;;;26.30;99.90;;;;;;4972789;28;20110;-54
2022/09/11 00:14:12;;;;;;;4.05;1.42;;;26.40;99.90;;;;;;4972633;28;20045;-53
2022/09/11 00:16:41;;;;;;;5.63;1.73;;;26.40;99.90;;;;;;4972855;28;20034;-54
2022/09/11 00:19:16;;;;;;;4.00;1.15;;;26.40;99.90;;;;;;4972716;28;20479;-54
2022/09/11 00:21:42;;;;;;;2.22;1.13;;;26.30;99.90;;;;;;4972424;28;20023;-55
2022/09/11 00:24:08;;;;;;;4.47;1.10;;;26.40;99.90;;;;;;4971396;28;20019;-54
2022/09/11 00:26:35;;;;;;;2.60;0.80;;;26.40;99.90;;;;;;4972434;28;20069;-54
2022/09/11 00:29:02;;;;;;;6.35;1.17;;;26.30;99.90;;;;;;4972495;28;20034;-53
2022/09/11 00:31:29;;;;;;;3.70;1.10;;;26.40;99.90;;;;;;4972432;28;20380;-54
2022/09/11 00:33:55;;;;;;;3.58;0.90;;;26.30;99.90;;;;;;4972425;28;20116;-54
2022/09/11 00:36:24;;;;;;;4.82;0.80;;;26.30;99.90;;;;;;4972013;28;20471;-53
2022/09/11 00:38:51;;;;;;;3.08;0.88;;;26.30;99.90;;;;;;4972297;28;20030;-54
2022/09/11 00:41:20;;;;;;;2.00;0.90;;;26.30;99.90;;;;;;4972320;28;20030;-55
2022/09/11 00:44:18;;;;;;;3.90;0.98;;;26.30;99.90;;;;;;4972447;28;20030;-54
2022/09/11 00:46:59;;;;;;;5.43;0.95;;;26.30;99.90;;;;;;4971866;28;20391;-54
2022/09/11 00:49:53;;;;;;;1.73;0.95;;;26.20;99.90;;;;;;4972275;28;20058;-54
2022/09/11 00:52:29;;;;;;;3.95;0.60;;;26.20;99.90;;;;;;4972193;28;20038;-54
2022/09/11 00:55:26;;;;;;;1.85;0.63;;;26.20;99.90;;;;;;4970918;28;20071;-54
2022/09/11 00:58:09;;;;;;;5.35;0.80;;;26.20;99.90;;;;;;4963896;28;20491;-54
2022/09/11 01:00:38;;;;;;;6.75;0.80;;;26.20;99.90;;;;;;4976340;28;20047;-54
2022/09/11 01:03:04;;;;;;;1.33;0.88;;;26.20;99.90;;;;;;4975796;28;20501;-54
2022/09/11 01:05:33;;;;;;;2.58;0.75;;;26.20;99.90;;;;;;4975825;28;20078;-54
2022/09/11 01:08:01;;;;;;;3.85;0.73;;;26.20;99.90;;;;;;4975832;28;20506;-54
2022/09/11 01:11:00;;;;;;;3.53;0.52;;;26.20;99.90;;;;;;4975593;28;20038;-54
2022/09/11 01:13:47;;;;;;;3.42;0.52;;;26.20;99.90;;;;;;4975489;28;20026;-54
2022/09/11 01:16:33;;;;;;;2.83;0.70;;;26.20;99.90;;;;;;4975950;28;20030;-53
2022/09/11 01:19:18;;;;;;;3.50;0.85;;;26.20;99.90;;;;;;4975546;28;20035;-54
2022/09/11 01:21:58;;;;;;;4.68;0.82;;;26.20;99.90;;;;;;4975867;28;20035;-54
2022/09/11 01:24:41;;;;;;;1.95;0.82;;;26.20;99.90;;;;;;4975471;28;20077;-55
2022/09/11 01:27:38;;;;;;;4.22;0.80;;;26.20;99.90;;;;;;4975415;28;20418;-54
2022/09/11 01:30:08;;;;;;;4.88;1.30;;;26.20;99.90;;;;;;4975371;28;20038;-54
2022/09/11 01:32:40;;;;;;;3.03;0.70;;;26.20;99.90;;;;;;4975349;28;20031;-54
2022/09/11 01:35:33;;;;;;;2.25;0.80;;;26.20;99.90;;;;;;4975423;28;20035;-54
2022/09/11 01:38:13;;;;;;;1.02;0.50;;;26.20;99.90;;;;;;4975264;28;20105;-54
2022/09/11 01:40:54;;;;;;;2.55;0.90;;;26.20;99.90;;;;;;4975279;28;20023;-56
2022/09/11 01:43:25;;;;;;;4.90;0.70;;;26.20;99.90;;;;;;4975290;28;20027;-54
2022/09/11 01:45:53;;;;;;;3.35;0.63;;;26.20;99.90;;;;;;4975192;28;20035;-54
2022/09/11 01:48:24;;;;;;;;;;;26.30;99.90;;;;;;4975500;28;20434;-54
2022/09/11 01:50:53;;;;;;;1.20;0.60;;;26.20;99.90;;;;;;4974958;28;19968;-54
2022/09/11 01:53:24;;;;;;;2.10;0.70;;;26.20;99.90;;;;;;4974778;28;20031;-54
2022/09/11 01:56:06;;;;;;;6.18;1.13;;;26.30;99.90;;;;;;4974945;28;20479;-54
2022/09/11 01:58:35;;;;;;;3.45;0.68;;;26.30;99.90;;;;;;4974875;28;20031;-54
2022/09/11 02:01:13;;;;;;;1.80;0.52;;;26.30;99.90;;;;;;4975087;28;20055;-54
2022/09/11 02:03:44;;;;;;;6.47;0.93;;;26.30;99.90;;;;;;4974806;28;20031;-54
2022/09/11 02:06:17;;;;;;;3.95;0.68;;;26.30;99.90;;;;;;4974716;28;20011;-54
2022/09/11 02:08:51;;;;;;;4.20;0.80;;;26.30;99.90;;;;;;4974810;28;20442;-54
2022/09/11 02:11:18;;;;;;;4.55;0.50;;;26.30;99.90;;;;;;4974461;28;20123;-55
2022/09/11 02:14:01;;;;;;;2.42;0.70;;;26.30;99.90;;;;;;4974619;28;20035;-54
2022/09/11 02:16:59;;;;;;;7.40;0.70;;;26.30;99.90;;;;;;4974603;28;20114;-54
2022/09/11 02:19:27;;;;;;;5.57;1.08;;;26.30;99.90;;;;;;4974416;28;20019;-54
2022/09/11 02:21:54;;;;;;;5.07;0.75;;;26.30;99.90;;;;;;4974465;28;20031;-55
2022/09/11 02:24:23;;;;;;;2.45;0.88;;;26.20;99.90;;;;;;4974284;28;20057;-54
2022/09/11 02:27:02;;;;;;;4.88;0.68;;;26.20;99.90;;;;;;4973058;28;20092;-54
2022/09/11 02:29:28;;;;;;;3.30;0.75;;;26.20;99.90;;;;;;4974206;28;20372;-54
2022/09/11 02:31:55;;;;;;;9.25;0.70;;;26.20;99.90;;;;;;4974345;28;20034;-54
2022/09/11 02:34:26;;;;;;;2.58;0.88;;;26.20;99.90;;;;;;4974269;28;20042;-54
2022/09/11 02:37:30;;;;;;;3.40;0.70;;;26.20;99.90;;;;;;4974274;28;20030;-54
2022/09/11 02:40:04;;;;;;;1.63;0.65;;;26.20;99.90;;;;;;4953531;28;20050;-54
2022/09/11 02:42:58;;;;;;;3.38;1.13;;;26.20;99.90;;;;;;4974162;28;20051;-55
2022/09/11 02:45:48;;;;;;;1.45;0.60;;;26.20;99.90;;;;;;4973980;28;20487;-55
2022/09/11 02:48:35;;;;;;;3.08;0.75;;;26.20;99.90;;;;;;4974298;28;20035;-54
2022/09/11 02:51:32;;;;;;;2.38;1.23;;;26.20;99.90;;;;;;4973827;28;20027;-54
2022/09/11 02:54:02;;;;;;;2.20;0.65;;;26.20;99.90;;;;;;4973829;28;20030;-54
2022/09/11 02:57:06;;;;;;;1.20;0.50;;;26.20;99.90;;;;;;4973860;28;20041;-54
2022/09/11 02:59:41;;;;;;;4.13;0.63;;;26.20;99.90;;;;;;4974136;28;20023;-54
2022/09/11 03:02:13;;;;;;;1.42;0.98;;;26.20;99.90;;;;;;4973604;28;20035;-54
2022/09/11 03:04:39;;;;;;;3.13;0.55;;;26.20;99.90;;;;;;4973714;28;20440;-54
2022/09/11 03:07:05;;;;;;;2.90;0.90;;;26.20;99.90;;;;;;4973575;28;20027;-54
2022/09/11 03:09:33;;;;;;;3.95;0.60;;;26.20;99.90;;;;;;4973480;28;20102;-53
2022/09/11 03:12:00;;;;;;;3.90;0.60;;;26.20;99.90;;;;;;4973546;28;20030;-54
2022/09/11 03:14:26;;;;;;;1.50;0.70;;;26.20;99.90;;;;;;4971859;28;20051;-52
2022/09/11 03:16:52;;;;;;;2.80;0.70;;;26.20;99.90;;;;;;4966880;28;20034;-53
2022/09/11 03:19:18;;;;;;;3.53;0.93;;;26.20;99.90;;;;;;4968308;28;20061;-54
2022/09/11 03:21:44;;;;;;;2.22;0.98;;;26.20;99.90;;;;;;4972763;28;20019;-54
2022/09/11 03:24:11;;;;;;;2.17;0.70;;;26.20;99.90;;;;;;4973243;28;20368;-53
2022/09/11 03:26:38;;;;;;;1.50;0.60;;;26.20;99.90;;;;;;4971384;28;20073;-53
2022/09/11 03:29:04;;;;;;;1.83;0.70;;;26.20;99.90;;;;;;4973368;28;20681;-53
2022/09/11 03:31:29;;;;;;;3.63;0.52;;;26.30;99.90;;;;;;4973152;28;20107;-53
2022/09/11 03:33:56;;;;;;;3.53;0.60;;;26.30;99.90;;;;;;4969953;28;20058;-54
2022/09/11 03:36:21;;;;;;;1.65;0.57;;;26.30;99.90;;;;;;4970309;28;20146;-54
2022/09/11 03:38:47;;;;;;;2.92;0.70;;;26.30;99.90;;;;;;4972686;28;20026;-53
2022/09/11 03:41:14;;;;;;;1.95;0.73;;;26.30;99.90;;;;;;4972568;28;20022;-54
2022/09/11 03:43:40;;;;;;;2.40;0.93;;;26.30;99.90;;;;;;4972633;28;20492;-54
2022/09/11 03:46:05;;;;;;;1.05;0.50;;;26.30;99.90;;;;;;4972439;28;20101;-54
2022/09/11 03:48:32;;;;;;;1.55;0.57;;;26.30;99.90;;;;;;4972084;28;20150;-54
2022/09/11 03:50:57;;;;;;;1.23;0.50;;;26.30;99.90;;;;;;4972832;28;20050;-55
2022/09/11 03:53:24;;;;;;;0.75;0.45;;;26.40;99.90;;;;;;4975011;28;20521;-54
2022/09/11 03:55:50;;;;;;;3.95;0.50;;;26.40;99.90;;;;;;4981732;28;20117;-53
2022/09/11 03:58:19;;;;;;;1.95;0.82;;;26.40;99.90;;;;;;4990909;28;20057;-54
2022/09/11 04:00:46;;;;;;;5.22;0.50;;;26.50;99.90;;;;;;5003654;23;20054;-55
2022/09/11 04:03:14;;;;;;;1.90;0.60;;;26.60;99.90;;;;;;4992149;28;20489;-56
2022/09/11 04:05:42;;;;;;;8.35;0.60;;;26.60;99.90;;;;;;4990988;28;20108;-55
2022/09/11 04:08:13;;;;;;;2.20;0.75;;;26.70;99.90;;;;;;4990587;28;20023;-56
2022/09/11 04:10:39;;;;;;;1.67;0.50;;;26.70;99.90;;;;;;4992000;28;20108;-55
2022/09/11 04:13:05;;;;;;;3.15;0.60;;;26.70;99.90;;;;;;4991234;28;20030;-56
2022/09/11 04:15:31;;;;;;;1.60;0.60;;;26.80;99.90;;;;;;4990740;28;20034;-55
2022/09/11 04:17:57;;;;;;;2.42;0.68;;;26.80;99.90;;;;;;4991700;28;20032;-57
2022/09/11 04:20:23;;;;;;;1.48;0.52;;;26.90;99.90;;;;;;4992067;28;20105;-55
2022/09/11 04:22:49;;;;;;;2.72;0.57;;;26.90;99.90;;;;;;4992134;28;20470;-55
2022/09/11 04:25:15;;;;;;;2.75;0.52;;;27.00;99.90;;;;;;4991964;28;20030;-56
2022/09/11 04:27:41;;;;;;;4.93;0.60;;;27.10;99.90;;;;;;4991631;28;20376;-55
2022/09/11 04:30:07;;;;;;;1.35;0.55;;;27.10;99.90;;;;;;4991693;28;20028;-56
2022/09/11 04:32:33;;;;;;;1.13;0.60;;;27.20;99.90;;;;;;4992570;28;20105;-56
2022/09/11 04:35:00;;;;;;;0.85;0.60;;;27.30;99.90;;;;;;4995542;28;20121;-56
2022/09/11 04:37:27;;;;;;;1.55;0.70;;;27.40;99.90;;;;;;4995722;28;20019;-56
2022/09/11 04:39:53;;;;;;;6.25;0.63;;;27.40;99.90;;;;;;4995821;28;20019;-56
2022/09/11 04:42:19;;;;;;;1.73;0.70;;;27.40;99.90;;;;;;4994493;28;20485;-55
2022/09/11 04:44:45;;;;;;;0.68;0.50;;;27.50;99.90;;;;;;4995685;28;20077;-56
2022/09/11 04:47:11;;;;;;;2.25;0.50;;;27.50;99.90;;;;;;4994250;28;20438;-56
2022/09/11 04:49:37;;;;;;;1.20;0.80;;;27.50;99.90;;;;;;4995508;28;20109;-55
2022/09/11 04:52:04;;;;;;;2.03;0.60;;;27.50;99.90;;;;;;4995440;28;20518;-55
2022/09/11 04:54:35;;;;;;;1.52;0.80;;;27.60;99.90;;;;;;4995419;28;20532;-55
2022/09/11 04:57:02;;;;;;;4.13;1.02;;;27.60;99.90;;;;;;4994172;28;20031;-55
2022/09/11 04:59:27;;;;;;;2.30;1.00;;;27.60;99.90;;;;;;4995187;28;20054;-55
2022/09/11 05:01:53;;;;;;;2.33;0.80;;;27.60;99.90;;;;;;4995737;28;20061;-55
2022/09/11 05:04:19;;;;;;;6.00;1.38;;;27.60;99.90;;;;;;4995267;28;20037;-55
2022/09/11 05:06:47;;;;;;;5.40;1.40;;;27.60;99.90;;;;;;4995236;28;20050;-55
2022/09/11 05:09:14;;;;;;;6.57;1.10;;;27.60;99.90;;;;;;4995257;28;20049;-55
2022/09/11 05:11:40;;;;;;;;;;;27.60;99.90;;;;;;4994372;28;20029;-55
2022/09/11 05:14:06;;;;;;;5.38;1.40;;;27.60;99.90;;;;;;4995026;28;19913;-55
2022/09/11 05:16:35;;;;;;;2.22;0.95;;;27.60;99.90;;;;;;4993859;28;20034;-56
2022/09/11 05:19:03;;;;;;;2.90;0.90;;;27.60;99.90;;;;;;4995017;28;20035;-56
2022/09/11 05:21:30;;;;;;;3.08;1.63;;;27.60;99.90;;;;;;4995146;28;20406;-56
2022/09/11 05:23:58;;;;;;;2.53;1.30;;;27.60;99.90;;;;;;4995142;28;20026;-55
2022/09/11 05:26:32;;;;;;;1.33;1.05;;;27.60;99.90;;;;;;4995006;28;20390;-56
2022/09/11 05:29:07;;;;;;;2.38;1.10;;;27.60;99.90;;;;;;4994864;28;20442;-55
2022/09/11 05:31:34;;;;;;;3.38;1.05;;;27.60;99.90;;;;;;4994804;28;20038;-55
2022/09/11 05:34:00;;;;;;;1.80;1.00;;;27.70;99.90;;;;;;4994543;28;20030;-55
2022/09/11 05:36:27;;;;;;;4.03;1.17;;;27.70;99.90;;;;;;4994968;28;20035;-56
2022/09/11 05:38:53;;;;;;;1.20;0.82;;;27.70;99.90;;;;;;4994888;28;20042;-56
2022/09/11 05:41:19;;;;;;;2.25;1.27;;;27.70;99.90;;;;;;4994633;28;20030;-55
2022/09/11 05:43:45;;;;;;;3.58;1.38;;;27.80;99.90;;;;;;4994576;28;20027;-56
2022/09/11 05:46:13;;;;;;;8.07;5.00;;;27.80;99.90;;;;;;4993952;28;20032;-55
2022/09/11 05:48:40;;;;;;;3.90;1.90;;;27.70;99.90;;;;;;4994402;28;20379;-56
2022/09/11 05:51:34;;;;;;;2.70;0.98;;;27.70;99.90;;;;;;4994426;28;20057;-55
2022/09/11 05:54:00;;;;;;;2.33;1.10;;;27.70;99.90;;;;;;4992015;28;20078;-56
2022/09/11 05:56:27;;;;;;;4.72;1.40;;;27.70;99.90;;;;;;4993285;28;20054;-55
2022/09/11 05:58:53;;;;;;;2.05;1.30;;;27.70;99.90;;;;;;4993003;28;20073;-56
2022/09/11 06:01:25;;;;;;;2.75;1.30;;;27.80;99.90;;;;;;4994089;28;20050;-55
2022/09/11 06:03:51;;;;;;;4.50;1.50;;;27.80;99.90;;;;;;4994212;28;20026;-55
2022/09/11 06:06:18;;;;;;;2.50;1.30;;;27.80;99.90;;;;;;4993986;28;20054;-56
2022/09/11 06:08:46;;;;;;;1.85;1.10;;;27.80;99.90;;;;;;4994047;28;20019;-55
2022/09/11 06:11:14;;;;;;;4.93;1.70;;;27.80;99.90;;;;;;4993989;28;20034;-56
2022/09/11 06:13:43;;;;;;;1.95;1.20;;;27.90;99.90;;;;;;4993853;28;20026;-55
2022/09/11 06:16:14;;;;;;;4.78;2.03;;;27.90;99.90;;;;;;4993778;28;20203;-55
2022/09/11 06:18:40;;;;;;;3.15;1.52;;;27.90;99.90;;;;;;4993942;28;20030;-55
2022/09/11 06:21:18;;;;;;;3.70;1.13;;;27.90;99.90;;;;;;4993806;28;20039;-56
2022/09/11 06:23:49;;;;;;;3.13;1.48;;;28.00;99.90;;;;;;4993772;28;20030;-56
2022/09/11 06:26:17;;;;;;;1.95;1.58;;;28.00;99.90;;;;;;4993736;28;20019;-56
2022/09/11 06:28:43;;;;;;;3.17;2.15;;;28.00;99.90;;;;;;4993690;28;20038;-55
2022/09/11 06:31:15;;;;;;;1.77;1.67;;;28.00;99.90;;;;;;4993928;28;20029;-56
2022/09/11 06:33:41;;;;;;;2.35;1.52;;;28.00;99.90;;;;;;4993574;28;20053;-55
2022/09/11 06:36:14;;;;;;;2.50;1.47;;;28.00;99.90;;;;;;4993542;28;20022;-56
2022/09/11 06:38:39;;;;;;;1.92;1.00;;;28.00;99.90;;;;;;4992316;28;20085;-56
2022/09/11 06:41:11;;;;;;;5.20;1.42;;;28.10;99.90;;;;;;4993576;28;20030;-55
2022/09/11 06:43:37;;;;;;;2.70;1.38;;;28.10;99.90;;;;;;4993397;28;20038;-56
2022/09/11 06:46:08;;;;;;;4.38;1.40;;;28.10;99.90;;;;;;4993442;28;20030;-55
2022/09/11 06:48:33;;;;;;;3.03;1.63;;;28.10;99.90;;;;;;4993419;28;20033;-55
2022/09/11 06:51:03;;;;;;;3.47;1.40;;;28.10;99.90;;;;;;4993034;28;20049;-55
2022/09/11 06:53:29;;;;;;;1.63;1.27;;;28.10;99.90;;;;;;4993391;28;20018;-56
2022/09/11 06:55:59;;;;;;;2.03;1.13;;;28.20;99.90;;;;;;4992684;28;20110;-56
2022/09/11 06:58:26;;;;;;;3.88;1.60;;;28.10;99.90;;;;;;4993297;28;20026;-55
2022/09/11 07:00:51;;;;;;;8.70;6.18;;;28.10;99.90;;;;;;4992864;28;20105;-55
2022/09/11 07:03:18;;;;;;;5.00;3.67;;;28.20;99.90;;;;;;4992942;28;20027;-55
2022/09/11 07:05:47;;;;;;;6.63;2.17;;;28.20;99.90;;;;;;4992817;28;20551;-55
2022/09/11 07:08:12;;;;;;;6.60;2.67;;;28.20;99.90;;;;;;4992907;28;20034;-56
2022/09/11 07:10:38;;;;;;;6.45;2.45;;;28.10;99.90;;;;;;4991528;28;20038;-55
2022/09/11 07:13:04;;;;;;;9.20;6.70;;;28.20;99.90;;;;;;4992517;28;20030;-55
2022/09/11 07:15:31;;;;;;;7.68;3.63;;;28.10;99.90;;;;;;4992525;28;20061;-55
2022/09/11 07:17:57;;;;;;;13.00;2.83;;;28.10;99.90;;;;;;4992689;28;20034;-55
2022/09/11 07:20:23;;;;;;;3.38;1.88;;;28.10;99.90;;;;;;4992487;28;20150;-55
2022/09/11 07:22:49;;;;;;;4.72;2.30;;;28.10;99.90;;;;;;4992377;28;20046;-55
2022/09/11 07:25:14;;;;;;;5.20;2.40;;;28.10;99.90;;;;;;4992552;28;20023;-55
2022/09/11 07:27:41;;;;;;;2.33;1.88;;;28.10;99.90;;;;;;4992283;28;20101;-55
2022/09/11 07:30:07;;;;;;;5.38;1.98;;;28.00;99.90;;;;;;4992226;28;20553;-55
2022/09/11 07:32:33;;;;;;;2.75;2.10;;;28.00;99.90;;;;;;4992440;28;20038;-55
2022/09/11 07:35:01;;;;;;;3.80;2.00;;;28.10;99.90;;;;;;4992511;28;20038;-55
2022/09/11 07:37:26;;;;;;;3.83;1.90;;;28.00;99.90;;;;;;4992359;28;20414;-55
2022/09/11 07:39:52;;;;;;;7.50;2.50;;;28.10;99.90;;;;;;4992268;28;20026;-55
2022/09/11 07:42:18;;;;;;;7.10;2.33;;;28.10;99.90;;;;;;4992176;28;20125;-55
2022/09/11 07:44:44;;;;;;;3.58;2.20;;;28.10;99.90;;;;;;4992193;28;20027;-55
2022/09/11 07:47:09;;;;;;;4.45;1.58;;;28.10;99.90;;;;;;4992404;28;20053;-55
2022/09/11 07:49:35;;;;;;;2.50;1.50;;;28.10;99.90;;;;;;4992236;28;20081;-55
2022/09/11 07:52:02;;;;;;;4.43;2.10;;;28.10;99.90;;;;;;4991151;28;20026;-55
2022/09/11 07:54:29;;;;;;;4.30;1.77;;;28.10;99.90;;;;;;4991963;28;20042;-55
2022/09/11 07:56:55;;;;;;;4.05;2.00;;;28.10;99.90;;;;;;4992057;28;20038;-55
2022/09/11 07:59:21;;;;;;;4.57;1.98;;;28.10;99.90;;;;;;4991901;28;20041;-55
2022/09/11 08:01:49;;;;;;;4.33;1.77;;;28.20;99.90;;;;;;4992161;28;20457;-55
2022/09/11 08:04:15;;;;;;;5.50;1.90;;;28.20;99.90;;;;;;4991957;28;20385;-55
2022/09/11 08:06:42;;;;;;;5.05;2.60;;;28.30;99.90;;;;;;4991995;28;20118;-55
2022/09/11 08:09:11;;;;;;;3.22;1.85;;;28.20;99.90;;;;;;4991614;28;20026;-55
2022/09/11 08:11:47;;;;;;;7.07;2.97;;;28.20;99.90;;;;;;4991808;28;20394;-55
2022/09/11 08:14:14;;;;;;;7.88;2.92;;;28.30;99.90;;;;;;4991772;28;20042;-55
2022/09/11 08:16:40;;;;;;;6.85;4.07;;;28.20;99.90;;;;;;4991869;28;20529;-55
2022/09/11 08:19:07;;;;;;;5.53;3.80;;;28.30;99.90;;;;;;4991853;28;20085;-55
2022/09/11 08:21:34;;;;;;;6.13;3.15;;;28.20;99.90;;;;;;4991928;28;20030;-55
2022/09/11 08:24:00;;;;;;;5.47;3.25;;;28.30;99.90;;;;;;4990511;28;20097;-55
2022/09/11 08:26:29;;;;;;;4.13;2.00;;;28.30;99.90;;;;;;4990604;28;20085;-55
2022/09/11 08:28:56;;;;;;;5.07;2.00;;;28.20;99.90;;;;;;4991697;28;20054;-56
2022/09/11 08:31:25;;;;;;;;;;;28.30;99.90;;;;;;4992347;28;20027;-55
2022/09/11 08:33:51;;;;;;;5.57;2.30;;;28.30;99.90;;;;;;4991741;28;20329;-55
2022/09/11 08:36:17;;;;;;;4.32;2.03;;;28.30;99.90;;;;;;4991705;28;20088;-55
2022/09/11 08:38:44;;;;;;;4.47;2.28;;;28.30;99.90;;;;;;4991544;28;20026;-55
2022/09/11 08:41:30;;;;;;;7.25;2.20;;;28.30;99.90;;;;;;4991624;28;20034;-55
2022/09/11 08:44:21;;;;;;;6.97;2.30;;;28.30;99.90;;;;;;4991645;28;20092;-55
2022/09/11 08:46:58;;;;;;;3.97;1.92;;;28.40;99.90;;;;;;4991430;28;20030;-56
2022/09/11 08:49:35;;;;;;;;;;;28.40;99.90;;;;;;4992112;28;20106;-55
2022/09/11 08:52:04;;;;;;;4.88;2.35;;;28.40;99.90;;;;;;4991654;28;19906;-55
2022/09/11 08:54:36;;;;;;;5.50;2.90;;;28.50;99.90;;;;;;4991451;28;20081;-55
2022/09/11 08:57:17;;;;;;;11.32;5.50;;;28.60;99.90;;;;;;4991580;28;20500;-55
2022/09/11 09:00:00;;;;;;;5.40;2.80;;;28.60;99.90;;;;;;4991312;28;20453;-55
2022/09/11 09:02:50;;;;;;;4.88;2.35;;;28.60;99.90;;;;;;4991443;28;20029;-55
2022/09/11 09:05:43;;;;;;;9.57;3.22;;;28.60;99.90;;;;;;4991427;28;20019;-56
2022/09/11 09:08:23;;;;;;;2.42;1.98;;;28.60;99.90;;;;;;4991364;28;20088;-55
2022/09/11 09:11:03;;;;;;;5.30;3.72;;;28.60;99.90;;;;;;4991319;28;20451;-55
2022/09/11 09:13:44;;;;;;;6.28;2.45;;;28.70;99.90;;;;;;4991043;28;20030;-56
2022/09/11 09:16:21;;;;;;;8.13;2.80;;;28.70;99.90;;;;;;4991193;28;20026;-55
2022/09/11 09:18:54;;;;;;;9.32;3.90;;;28.70;99.90;;;;;;4991386;28;20026;-56
2022/09/11 09:21:52;;;;;;;7.93;3.00;;;28.70;99.90;;;;;;4994644;28;20034;-55
2022/09/11 09:24:18;;;;;;;5.43;2.40;;;28.70;99.90;;;;;;4964565;28;20395;-55
2022/09/11 09:26:53;;;;;;;4.67;2.37;;;28.80;99.90;;;;;;4994791;28;20413;-55
2022/09/11 09:29:24;;;;;;;6.10;3.30;;;28.90;99.90;;;;;;4994659;28;20081;-55
2022/09/11 09:31:57;;;;;;;4.40;2.10;;;28.90;99.90;;;;;;4994726;28;20478;-55
2022/09/11 09:34:28;;;;;;;5.10;2.38;;;28.90;99.90;;;;;;4994361;28;20073;-55
2022/09/11 09:37:16;;;;;;;4.68;1.70;;;28.90;99.90;;;;;;4994374;28;20050;-55
2022/09/11 09:39:42;;;;;;;2.85;1.80;;;29.00;99.90;;;;;;4994489;28;20022;-55
2022/09/11 09:42:14;;;;;;;7.70;2.90;;;29.00;99.90;;;;;;4994869;28;20467;-55
2022/09/11 09:44:42;;;;;;;5.45;2.47;;;29.00;99.90;;;;;;4994555;28;20053;-55
2022/09/11 09:47:12;;;;;;;4.72;1.98;;;29.00;99.90;;;;;;4994418;28;20037;-55
2022/09/11 09:49:40;;;;;;;5.43;1.83;;;29.10;99.90;;;;;;4994670;28;20018;-55
2022/09/11 09:52:17;;;;;;;7.85;2.33;;;29.10;99.90;;;;;;4976910;28;20029;-55
2022/09/11 09:54:52;;;;;;;4.68;2.63;;;29.10;99.90;;;;;;4994079;28;20195;-55
2022/09/11 09:57:20;;;;;;;4.75;2.38;;;29.10;99.90;;;;;;4994311;28;20022;-55
2022/09/11 09:59:56;;;;;;;7.95;3.75;;;29.10;99.90;;;;;;4993896;28;20073;-56
2022/09/11 10:02:38;;;;;;;7.35;3.05;;;29.10;99.90;;;;;;4994189;28;20026;-55
2022/09/11 10:05:28;;;;;;;5.72;2.63;;;29.20;99.90;;;;;;4993881;28;20478;-56
2022/09/11 10:07:56;;;;;;;5.50;2.83;;;29.30;99.90;;;;;;4993940;28;20030;-55
2022/09/11 10:10:39;;;;;;;8.85;2.97;;;29.30;99.90;;;;;;4994039;28;20101;-55
2022/09/11 10:13:24;;;;;;;8.88;2.50;;;29.30;99.90;;;;;;4993974;28;20058;-56
2022/09/11 10:15:52;;;;;;;7.38;3.00;;;29.30;99.90;;;;;;4993967;28;20045;-55
2022/09/11 10:18:41;;;;;;;3.90;1.77;;;29.40;99.90;;;;;;4993819;28;20044;-55
2022/09/11 10:21:20;;;;;;;5.22;1.55;;;29.40;99.90;;;;;;4993757;28;20022;-55
2022/09/11 10:23:56;;;;;;;4.20;2.50;;;29.50;99.90;;;;;;4993728;28;20026;-56
2022/09/11 10:26:48;;;;;;;8.10;2.70;;;29.50;99.90;;;;;;4993661;28;20029;-56
2022/09/11 10:29:26;;;;;;;5.90;2.13;;;29.50;99.90;;;;;;4993704;28;20038;-56
2022/09/11 10:32:02;;;;;;;2.10;1.55;;;29.60;99.90;;;;;;4993555;28;20374;-55
2022/09/11 10:34:35;;;;;;;4.88;2.08;;;29.60;99.90;;;;;;4993357;28;20034;-57
2022/09/11 10:37:06;;;;;;;6.85;3.90;;;29.60;99.90;;;;;;4993575;28;20037;-55
2022/09/11 10:39:35;;;;;;;6.10;3.85;;;29.60;99.90;;;;;;4993438;28;20022;-56
2022/09/11 10:42:15;;;;;;;8.02;3.38;;;29.70;99.90;;;;;;4993533;28;20049;-56
2022/09/11 10:44:44;;;;;;;3.17;1.88;;;29.70;99.90;;;;;;4993679;28;20030;-56
2022/09/11 10:47:29;;;;;;;4.93;2.40;;;29.70;99.90;;;;;;4993527;28;20022;-56
2022/09/11 10:50:16;;;;;;;5.43;2.33;;;29.70;99.90;;;;;;4993240;28;20033;-56
2022/09/11 10:52:57;;;;;;;7.35;3.42;;;29.80;99.90;;;;;;4993320;28;20165;-55
2022/09/11 10:55:27;;;;;;;7.68;2.60;;;29.80;99.90;;;;;;4993142;28;20061;-56
2022/09/11 10:58:04;;;;;;;6.10;3.35;;;29.90;99.90;;;;;;4993079;28;20050;-56
2022/09/11 11:00:30;;;;;;;7.68;2.40;;;29.90;99.90;;;;;;4993112;28;20069;-56
2022/09/11 11:03:16;;;;;;;5.85;2.80;;;30.00;99.90;;;;;;4992997;28;20109;-56
2022/09/11 11:06:03;;;;;;;9.07;3.85;;;30.00;99.90;;;;;;4993391;28;20041;-57
2022/09/11 11:09:01;;;;;;;5.43;2.47;;;30.00;99.90;;;;;;4992892;28;20482;-56
2022/09/11 11:11:54;;;;;;;4.15;2.00;;;30.00;99.90;;;;;;4992072;28;20058;-57
2022/09/11 11:14:39;;;;;;;5.68;2.40;;;30.00;99.90;;;;;;4989885;28;20085;-57
2022/09/11 11:17:21;;;;;;;4.65;2.53;;;30.10;99.90;;;;;;4992880;28;20019;-55
2022/09/11 11:20:08;;;;;;;6.30;1.90;;;30.10;99.90;;;;;;4992750;28;20027;-56
2022/09/11 11:22:46;;;;;;;;;;;30.10;99.90;;;;;;4993168;28;20105;-56
2022/09/11 11:25:45;;;;;;;4.43;2.33;;;30.10;99.90;;;;;;4992996;28;19945;-56
2022/09/11 11:28:19;;;;;;;5.93;2.78;;;30.20;99.90;;;;;;4991414;28;20118;-57
2022/09/11 11:31:15;;;;;;;5.55;2.58;;;30.20;99.90;;;;;;4992773;28;20119;-56
2022/09/11 11:34:08;;;;;;;8.63;2.83;;;30.30;99.90;;;;;;4992415;28;20024;-56
2022/09/11 11:36:51;;;;;;;7.75;2.40;;;30.40;99.90;;;;;;4992219;28;20026;-55
2022/09/11 11:39:34;;;;;;;7.50;2.83;;;30.40;99.90;;;;;;4991966;28;20071;-56
2022/09/11 11:42:13;;;;;;;4.85;2.45;;;30.40;99.90;;;;;;4992078;28;20480;-56
2022/09/11 11:44:53;;;;;;;7.57;4.57;;;30.50;99.90;;;;;;4992242;28;20352;-55
2022/09/11 11:47:24;;;;;;;2.72;2.25;;;30.50;99.90;;;;;;4992255;28;20340;-55
2022/09/11 11:50:20;;;;;;;5.03;2.10;;;30.60;99.90;;;;;;4992101;28;20062;-56
2022/09/11 11:53:01;;;;;;;7.28;2.20;;;30.50;99.90;;;;;;4992460;28;20062;-55
2022/09/11 11:56:06;;;;;;;7.28;2.75;;;30.60;99.90;;;;;;4992155;28;20036;-55
2022/09/11 11:58:41;;;;;;;2.73;2.07;;;30.50;99.90;;;;;;4928516;28;20037;-56
2022/09/11 12:01:23;;;;;;;4.80;1.67;;;30.60;99.90;;;;;;4990149;28;20070;-55
2022/09/11 12:04:03;;;;;;;20.73;13.82;;;30.70;99.90;;;;;;4987488;28;20101;-56
2022/09/11 12:06:30;;;;;;;6.32;3.47;;;30.80;99.90;;;;;;4991330;28;20026;-56
2022/09/11 12:08:56;;;;;;;6.30;2.10;;;30.90;99.90;;;;;;4992055;28;20057;-55
2022/09/11 12:11:30;;;;;;;4.93;2.07;;;31.00;99.90;;;;;;4991923;28;20148;-55
2022/09/11 12:13:57;;;;;;;9.23;2.70;;;31.10;99.90;;;;;;4988718;28;20019;-55
2022/09/11 12:16:34;;;;;;;5.22;1.75;;;31.10;99.90;;;;;;4985873;28;20117;-55
2022/09/11 12:19:05;;;;;;;5.35;1.88;;;31.20;99.90;;;;;;4985608;28;20076;-55
2022/09/11 12:21:30;;;;;;;4.95;1.77;;;31.20;99.90;;;;;;4990310;28;20117;-56
2022/09/11 12:23:56;;;;;;;7.18;1.67;;;31.20;99.90;;;;;;4991843;28;20058;-56
2022/09/11 12:26:24;;;;;;;5.80;2.00;;;31.30;99.90;;;;;;4991773;28;20022;-55
2022/09/11 12:29:19;;;;;;;5.65;2.30;;;31.30;99.90;;;;;;4991637;28;20120;-57
2022/09/11 12:31:50;;;;;;;5.05;1.98;;;31.40;99.90;;;;;;4955786;28;20549;-55
2022/09/11 12:34:37;;;;;;;4.78;1.50;;;31.40;99.90;;;;;;4991710;28;20042;-56
2022/09/11 12:37:11;;;;;;;4.30;1.60;;;31.50;99.90;;;;;;4990264;28;20401;-56
2022/09/11 12:39:51;;;;;;;7.90;1.77;;;31.50;99.90;;;;;;4985009;28;20022;-55
2022/09/11 12:42:24;;;;;;;5.18;1.60;;;31.50;99.90;;;;;;4974993;28;20076;-55
2022/09/11 12:44:49;;;;;;;2.30;1.17;;;31.50;99.90;;;;;;4978108;28;20043;-55
2022/09/11 12:47:31;;;;;;;7.25;1.45;;;31.50;99.90;;;;;;4991340;28;20018;-55
2022/09/11 12:50:04;;;;;;;4.85;1.67;;;31.50;99.90;;;;;;4991458;28;20019;-55
2022/09/11 12:52:46;;;;;;;3.30;1.42;;;31.50;99.90;;;;;;4991523;28;20505;-55
2022/09/11 12:56:04;;;;;;;3.58;1.75;;;31.50;99.90;;;;;;4992687;28;20045;-56
2022/09/11 12:58:39;;;;;;;4.78;1.75;;;31.50;99.90;;;;;;4969990;28;20030;-52
2022/09/11 13:01:13;;;;;;;4.40;1.30;;;31.40;99.90;;;;;;4993404;28;20445;-54
2022/09/11 13:04:02;;;;;;;5.43;1.42;;;31.40;99.90;;;;;;4987962;28;20034;-54
2022/09/11 13:06:50;;;;;;;9.68;1.98;;;31.40;99.90;;;;;;4990904;28;20445;-54
2022/09/11 13:09:22;;;;;;;6.88;1.50;;;31.30;99.90;;;;;;4982799;28;20026;-54
2022/09/11 13:11:56;;;;;;;3.28;1.23;;;31.20;99.90;;;;;;4992134;28;20073;-55
2022/09/11 13:14:27;;;;;;;6.40;1.58;;;31.20;99.90;;;;;;4993583;28;20101;-54
2022/09/11 13:17:11;;;;;;;5.55;1.88;;;31.30;99.90;;;;;;4989564;28;20049;-52
2022/09/11 13:19:38;;;;;;;5.80;1.90;;;31.30;99.90;;;;;;4987308;28;20022;-52